»·PEaware :: N227LG KAVX-KSAN

N227LG :: KAVX-KSAN

FLIGHT INFORMATION

Flight Status: Arrived
Operator: Privately registered:
United States
More flights under this callsign
Pilot: Brian B. (27125)
Aircraft: Unknown
(DA62)
More flights by this aircraft type
Origin: KAVX Catalina
United States
Destination: KSAN San Diego Intl-Lindbergh
United States
More flights between these airports :: More routes between these airports
Route: SXC V208 OCN V23 MZB
File this flight plan on PilotEdge
Remarks: I-8 Vectored Non-Precision Approach
Altitude:
(Current/Filed)
5,000ft
Speed:
(Current/Filed)
150kts
Departed: 11-Jan-20 07:34 PM
Arrived: 11-Jan-20 08:52 PM
Distance/Time
Traveled:
74nm/1:18
Distance/Time
To Go:
Arrived

Flight Plot

Page will automatically refresh every two minutes.


Map Options




Map Legend


Flown Route
Filed Route
Departure Airport
Arrival Airport
Navaid (VOR, NDB)
Fix

Horizontal Profiles

Position Reports

Time Latitude Longitude Heading Altitude Ground
Speed
11-Jan-20 19:15 33.403476 -118.415363 276 1548ft 0kts
11-Jan-20 19:16 33.403476 -118.415363 276 1548ft 0kts
11-Jan-20 19:17 33.403476 -118.415363 276 1548ft 0kts
11-Jan-20 19:18 33.403476 -118.415363 276 1548ft 0kts
11-Jan-20 19:19 33.403476 -118.415363 276 1548ft 0kts
11-Jan-20 19:20 33.403476 -118.415363 276 1548ft 0kts
11-Jan-20 19:21 33.403476 -118.415363 276 1548ft 0kts
11-Jan-20 19:22 33.403476 -118.415363 276 1548ft 0kts
11-Jan-20 19:23 33.403476 -118.415363 276 1548ft 0kts
11-Jan-20 19:24 33.403476 -118.415363 276 1548ft 0kts
11-Jan-20 19:25 33.403476 -118.415363 276 1548ft 0kts
11-Jan-20 19:26 33.403476 -118.415363 276 1548ft 0kts
11-Jan-20 19:27 33.403476 -118.415367 277 1548ft 1kts
11-Jan-20 19:28 33.405531 -118.414210 54 1533ft 28kts
11-Jan-20 19:29 33.407178 -118.411433 46 1500ft 0kts
11-Jan-20 19:30 33.407178 -118.411433 46 1500ft 0kts
11-Jan-20 19:31 33.407300 -118.411429 341 1499ft 1kts
11-Jan-20 19:32 33.407342 -118.411806 237 1502ft 0kts
11-Jan-20 19:33 33.402864 -118.419379 234 1612ft 76kts
11-Jan-20 19:34 33.388291 -118.440421 180 2592ft 89kts
11-Jan-20 19:35 33.378140 -118.419776 109 3231ft 114kts
11-Jan-20 19:36 33.372109 -118.392627 100 4069ft 104kts
11-Jan-20 19:37 33.368468 -118.367458 98 4855ft 99kts
11-Jan-20 19:38 33.364748 -118.338742 98 4920ft 139kts
11-Jan-20 19:39 33.360096 -118.301991 98 4911ft 154kts
11-Jan-20 19:40 33.355044 -118.262919 98 4909ft 158kts
11-Jan-20 19:41 33.350440 -118.223114 95 4908ft 159kts
11-Jan-20 19:42 33.348339 -118.183078 91 4908ft 159kts
11-Jan-20 19:43 33.348923 -118.143141 86 4881ft 160kts
11-Jan-20 19:44 33.348956 -118.104210 119 4876ft 158kts
11-Jan-20 19:45 33.330803 -118.065474 107 4881ft 157kts
11-Jan-20 19:46 33.322921 -118.020728 99 4880ft 157kts
11-Jan-20 19:47 33.317060 -117.976938 98 4880ft 157kts
11-Jan-20 19:48 33.311678 -117.936648 98 4880ft 157kts
11-Jan-20 19:49 33.306158 -117.895456 98 4880ft 157kts
11-Jan-20 19:50 33.300500 -117.852834 99 4880ft 157kts
11-Jan-20 19:51 33.295123 -117.813086 98 4880ft 157kts
11-Jan-20 19:52 33.289835 -117.772477 98 4880ft 157kts
11-Jan-20 19:53 33.284868 -117.733136 96 4882ft 161kts
11-Jan-20 19:55 33.280328 -117.691377 101 4880ft 163kts
11-Jan-20 19:56 33.272507 -117.650060 101 4881ft 164kts
11-Jan-20 19:57 33.265412 -117.606891 100 4880ft 164kts
11-Jan-20 19:58 33.259129 -117.564539 98 4881ft 164kts
11-Jan-20 19:59 33.254971 -117.523517 94 4881ft 164kts
11-Jan-20 20:00 33.250226 -117.483243 99 4880ft 164kts
11-Jan-20 20:01 33.244679 -117.443284 98 4880ft 164kts
11-Jan-20 20:02 33.230486 -117.409387 152 4876ft 164kts
11-Jan-20 20:03 33.197117 -117.397066 164 4881ft 165kts
11-Jan-20 20:04 33.161682 -117.383731 160 4881ft 166kts
11-Jan-20 20:05 33.125656 -117.368723 159 4880ft 166kts
11-Jan-20 20:06 33.089893 -117.353694 159 4880ft 165kts
11-Jan-20 20:07 33.055751 -117.339288 160 4880ft 166kts
11-Jan-20 20:08 33.020732 -117.324503 160 4880ft 166kts
11-Jan-20 20:09 32.983680 -117.309122 160 4878ft 161kts
11-Jan-20 20:10 32.949179 -117.294673 160 4879ft 154kts
11-Jan-20 20:11 32.917084 -117.281286 160 4878ft 146kts
11-Jan-20 20:12 32.887658 -117.269004 160 4879ft 141kts
11-Jan-20 20:13 32.859782 -117.257369 160 4880ft 138kts
11-Jan-20 20:14 32.844464 -117.233891 101 4883ft 136kts
11-Jan-20 20:15 32.839324 -117.203245 100 4881ft 137kts
11-Jan-20 20:15 32.834288 -117.172916 100 4881ft 140kts
11-Jan-20 20:17 32.827440 -117.131718 100 4881ft 142kts
11-Jan-20 20:18 32.821772 -117.097584 100 4881ft 143kts
11-Jan-20 20:18 32.816808 -117.067515 100 4881ft 144kts
11-Jan-20 20:20 32.809478 -117.023306 100 4881ft 146kts
11-Jan-20 20:20 32.804494 -116.993238 100 4881ft 146kts
11-Jan-20 20:21 32.790792 -116.963092 140 4878ft 140kts
11-Jan-20 20:23 32.763917 -116.937293 140 4878ft 129kts
11-Jan-20 20:23 32.745590 -116.919745 140 4880ft 126kts
11-Jan-20 20:24 32.723294 -116.898381 140 4881ft 126kts
11-Jan-20 20:25 32.699249 -116.875352 140 4882ft 130kts
11-Jan-20 20:26 32.674427 -116.851576 140 4880ft 130kts
11-Jan-20 20:27 32.649972 -116.828152 140 4880ft 129kts
11-Jan-20 20:28 32.625378 -116.804594 140 4880ft 129kts
11-Jan-20 20:29 32.601168 -116.781402 140 4880ft 129kts
11-Jan-20 20:30 32.576312 -116.757599 140 4880ft 129kts
11-Jan-20 20:31 32.551143 -116.733485 140 4881ft 129kts
11-Jan-20 20:32 32.524395 -116.712307 182 4876ft 129kts
11-Jan-20 20:33 32.518374 -116.738801 309 4881ft 121kts
11-Jan-20 20:34 32.536273 -116.763334 310 4883ft 123kts
11-Jan-20 20:35 32.555477 -116.789466 310 4882ft 127kts
11-Jan-20 20:36 32.573316 -116.813740 310 4881ft 130kts
11-Jan-20 20:37 32.591617 -116.838662 310 4881ft 131kts
11-Jan-20 20:38 32.610231 -116.863973 310 4880ft 129kts
11-Jan-20 20:39 32.630236 -116.891204 310 4066ft 158kts
11-Jan-20 20:40 32.649669 -116.917656 310 3671ft 121kts
11-Jan-20 20:41 32.665044 -116.938563 310 3680ft 109kts
11-Jan-20 20:42 32.676165 -116.961699 292 3682ft 112kts
11-Jan-20 20:43 32.684169 -116.988580 287 3396ft 134kts
11-Jan-20 20:44 32.693019 -117.023570 286 2728ft 156kts
11-Jan-20 20:45 32.700841 -117.056357 283 2389ft 120kts
11-Jan-20 20:46 32.707105 -117.082271 285 1893ft 105kts
11-Jan-20 20:47 32.713266 -117.106653 284 1383ft 108kts
11-Jan-20 20:48 32.719763 -117.133422 285 847ft 92kts
11-Jan-20 20:49 32.725557 -117.156950 285 434ft 83kts
11-Jan-20 20:50 32.730955 -117.178940 284 64ft 82kts
11-Jan-20 20:51 32.733882 -117.188110 23 17ft 0kts
11-Jan-20 20:52 32.734120 -117.187916 52 17ft 10kts
11-Jan-20 20:53 32.733371 -117.183865 108 17ft 22kts
11-Jan-20 20:54 32.733339 -117.181574 242 17ft 0kts
11-Jan-20 20:55 32.733339 -117.181574 242 17ft 0kts
11-Jan-20 20:56 32.733339 -117.181574 242 17ft 0kts

Navigation Log

Ident Type
Flight plan parsing failed, navigation log unavailable